^^
Saratoga-Weather Station Historical Data
Daily Summary for January 20, 2021 Units:  Both    English   Metric
Daily Weekly Monthly Yearly Custom
  High: Low: Average:
Temperature: 80.8 °F /  27.1 °C 65.7 °F /  18.7 °C 70.7 °F /  21.5 °C
Dew Point: 67.5 °F /  19.7 °C 59.4 °F /  15.2 °C 64.6 °F /  18.1 °C
Humidity: 95% 49% 82%
Wind Speed: 8.9mph /  14.3km/h - 1.1mph /  1.8km/h
Wind Gust: 10mph /  16.1km/h - -
Wind- - SSW
Pressure: 29.8 in /  1009.8 hPa 29.6 in /  1003.0 hPa -
Precipitation: 0.09 in /  2.3 mm    
Historical Graphs
 
 
Tabular Data for January 20, 2021
Time Temperature Dew Point Pressure Wind Wind Speed Wind Gust Humidity Rainfall Rate (Hourly) solar
00:04 70.2 °F /  21.2 °C 67.5 °F /  19.7 °C 29.7in /  1006.8hPa West 6mph /  9.7km/h 9mph /  14.5km/h 91% 0.3in /  7.6mm 0 W/m2
00:09 70.2 °F /  21.2 °C 67.5 °F /  19.7 °C 29.7in /  1006.8hPa West 4mph /  6.4km/h 10mph /  16.1km/h 91% 0.17in /  4.3mm 0 W/m2
00:14 70.2 °F /  21.2 °C 67.5 °F /  19.7 °C 29.7in /  1006.8hPa West 4mph /  6.4km/h 7mph /  11.3km/h 91% 0.09in /  2.3mm 0 W/m2
00:19 70.2 °F /  21.2 °C 67.1 °F /  19.5 °C 29.7in /  1007.1hPa WSW 2mph /  3.2km/h 7mph /  11.3km/h 90% 0.09in /  2.3mm 0 W/m2
00:24 70.3 °F /  21.3 °C 67.3 °F /  19.6 °C 29.7in /  1007.1hPa WSW 2mph /  3.2km/h 4mph /  6.4km/h 90% 0.07in /  1.8mm 0 W/m2
00:29 70.2 °F /  21.2 °C 67.1 °F /  19.5 °C 29.7in /  1007.1hPa NW 0.9mph /  1.4km/h 1mph /  1.6km/h 90% 0.07in /  1.8mm 0 W/m2
00:34 70.2 °F /  21.2 °C 67.1 °F /  19.5 °C 29.7in /  1007.1hPa WSW 2.9mph /  4.7km/h 4mph /  6.4km/h 90% 0.01in /  0.2mm 0 W/m2
00:39 70 °F /  21.1 °C 67.3 °F /  19.6 °C 29.7in /  1007.1hPa West 0.9mph /  1.4km/h 5mph /  8km/h 91% 0in /  0.0mm 0 W/m2
00:44 69.6 °F /  20.9 °C 66.9 °F /  19.4 °C 29.7in /  1007.1hPa Calm   1mph /  1.6km/h 91% 0in /  0.0mm 0 W/m2
00:49 69.6 °F /  20.9 °C 66.9 °F /  19.4 °C 29.7in /  1007.1hPa Calm   5mph /  8km/h 91% 0in /  0.0mm 0 W/m2
00:54 69.4 °F /  20.8 °C 67.1 °F /  19.5 °C 29.7in /  1007.1hPa WSW 2mph /  3.2km/h 3mph /  4.8km/h 92% 0in /  0.0mm 0 W/m2
00:59 69.3 °F /  20.7 °C 66.9 °F /  19.4 °C 29.7in /  1007.1hPa SW 2.9mph /  4.7km/h 3mph /  4.8km/h 92% 0in /  0.0mm 0 W/m2
01:04 69.3 °F /  20.7 °C 66.9 °F /  19.4 °C 29.7in /  1007.1hPa West 0.9mph /  1.4km/h 4mph /  6.4km/h 92% 0in /  0.0mm 0 W/m2
01:09 69.1 °F /  20.6 °C 66.4 °F /  19.1 °C 29.7in /  1007.1hPa WSW 2mph /  3.2km/h 3mph /  4.8km/h 91% 0in /  0.0mm 0 W/m2
01:14 69.1 °F /  20.6 °C 66.4 °F /  19.1 °C 29.7in /  1007.1hPa Calm   4mph /  6.4km/h 91% 0in /  0.0mm 0 W/m2
01:19 69.1 °F /  20.6 °C 66.4 °F /  19.1 °C 29.8in /  1007.5hPa Calm   4mph /  6.4km/h 91% 0in /  0.0mm 0 W/m2
01:24 69.1 °F /  20.6 °C 66 °F /  18.9 °C 29.8in /  1007.8hPa Calm   4mph /  6.4km/h 90% 0in /  0.0mm 0 W/m2
01:29 69.1 °F /  20.6 °C 66.4 °F /  19.1 °C 29.8in /  1008.1hPa ENE 2.9mph /  4.7km/h 5mph /  8km/h 91% 0in /  0.0mm 0 W/m2
01:34 69.1 °F /  20.6 °C 66 °F /  18.9 °C 29.8in /  1007.8hPa Calm     90% 0in /  0.0mm 0 W/m2
01:39 69.1 °F /  20.6 °C 66.4 °F /  19.1 °C 29.8in /  1007.8hPa WNW 0.9mph /  1.4km/h 4mph /  6.4km/h 91% 0in /  0.0mm 0 W/m2
01:44 68.9 °F /  20.5 °C 65.8 °F /  18.8 °C 29.8in /  1007.5hPa North 0.9mph /  1.4km/h 2mph /  3.2km/h 90% 0in /  0.0mm 0 W/m2
01:49 68.7 °F /  20.4 °C 66 °F /  18.9 °C 29.7in /  1007.1hPa North 2.9mph /  4.7km/h 3mph /  4.8km/h 91% 0in /  0.0mm 0 W/m2
01:54 68.5 °F /  20.3 °C 65.8 °F /  18.8 °C 29.8in /  1007.5hPa SSW 2mph /  3.2km/h 3mph /  4.8km/h 91% 0in /  0.0mm 0 W/m2
01:59 68.4 °F /  20.2 °C 65.7 °F /  18.7 °C 29.8in /  1007.5hPa NNE 0.9mph /  1.4km/h 3mph /  4.8km/h 91% 0in /  0.0mm 0 W/m2
02:04 68.5 °F /  20.3 °C 65.5 °F /  18.6 °C 29.7in /  1007.1hPa SSE 0.9mph /  1.4km/h 3mph /  4.8km/h 90% 0in /  0.0mm 0 W/m2
02:09 68.4 °F /  20.2 °C 65.7 °F /  18.7 °C 29.7in /  1006.8hPa Calm   2mph /  3.2km/h 91% 0in /  0.0mm 0 W/m2
02:14 68.2 °F /  20.1 °C 65.5 °F /  18.6 °C 29.7in /  1007.1hPa Calm   1mph /  1.6km/h 91% 0in /  0.0mm 0 W/m2
02:19 68 °F /  20 °C 65.3 °F /  18.5 °C 29.7in /  1007.1hPa Calm     91% 0in /  0.0mm 0 W/m2
02:24 67.8 °F /  19.9 °C 65.1 °F /  18.4 °C 29.7in /  1007.1hPa Calm   3mph /  4.8km/h 91% 0in /  0.0mm 0 W/m2
02:29 67.6 °F /  19.8 °C 64.9 °F /  18.3 °C 29.7in /  1006.8hPa Calm     91% 0in /  0.0mm 0 W/m2
02:34 67.6 °F /  19.8 °C 64.9 °F /  18.3 °C 29.7in /  1006.8hPa Calm   1mph /  1.6km/h 91% 0in /  0.0mm 0 W/m2
02:39 67.5 °F /  19.7 °C 64.8 °F /  18.2 °C 29.7in /  1006.8hPa Calm   1mph /  1.6km/h 91% 0in /  0.0mm 0 W/m2
02:44 67.5 °F /  19.7 °C 64.8 °F /  18.2 °C 29.7in /  1006.4hPa Calm   2mph /  3.2km/h 91% 0in /  0.0mm 0 W/m2
02:49 67.5 °F /  19.7 °C 65.1 °F /  18.4 °C 29.7in /  1006.8hPa Calm   1mph /  1.6km/h 92% 0in /  0.0mm 0 W/m2
02:54 67.3 °F /  19.6 °C 64.9 °F /  18.3 °C 29.8in /  1007.8hPa NNW 0.9mph /  1.4km/h 5mph /  8km/h 92% 0in /  0.0mm 0 W/m2
02:59 67.3 °F /  19.6 °C 64.9 °F /  18.3 °C 29.8in /  1007.8hPa Calm   4mph /  6.4km/h 92% 0in /  0.0mm 0 W/m2
03:04 67.1 °F /  19.5 °C 64.8 °F /  18.2 °C 29.8in /  1008.1hPa NNW 2.9mph /  4.7km/h 3mph /  4.8km/h 92% 0in /  0.0mm 0 W/m2
03:09 67.3 °F /  19.6 °C 64.9 °F /  18.3 °C 29.8in /  1008.1hPa NNW 2.9mph /  4.7km/h 3mph /  4.8km/h 92% 0in /  0.0mm 0 W/m2
03:14 67.3 °F /  19.6 °C 64.9 °F /  18.3 °C 29.8in /  1008.1hPa West 2.9mph /  4.7km/h 6mph /  9.7km/h 92% 0in /  0.0mm 0 W/m2
03:19 67.3 °F /  19.6 °C 64.6 °F /  18.1 °C 29.8in /  1008.1hPa Calm   2mph /  3.2km/h 91% 0in /  0.0mm 0 W/m2
03:24 67.3 °F /  19.6 °C 64.6 °F /  18.1 °C 29.8in /  1008.1hPa NW 0.9mph /  1.4km/h 5mph /  8km/h 91% 0in /  0.0mm 0 W/m2
03:29 67.3 °F /  19.6 °C 64.6 °F /  18.1 °C 29.8in /  1008.5hPa NW 2.9mph /  4.7km/h 7mph /  11.3km/h 91% 0in /  0.0mm 0 W/m2
03:34 67.1 °F /  19.5 °C 64.4 °F /  18 °C 29.8in /  1008.5hPa Calm   4mph /  6.4km/h 91% 0in /  0.0mm 0 W/m2
03:39 67.1 °F /  19.5 °C 64.4 °F /  18 °C 29.8in /  1008.1hPa NNW 2.9mph /  4.7km/h 6mph /  9.7km/h 91% 0in /  0.0mm 0 W/m2
03:44 67.1 °F /  19.5 °C 64.4 °F /  18 °C 29.8in /  1008.1hPa WNW 0.9mph /  1.4km/h 3mph /  4.8km/h 91% 0in /  0.0mm 0 W/m2
03:49 67.1 °F /  19.5 °C 64.4 °F /  18 °C 29.8in /  1008.5hPa WNW 2mph /  3.2km/h 8mph /  12.9km/h 91% 0in /  0.0mm 0 W/m2
03:54 67.1 °F /  19.5 °C 64.4 °F /  18 °C 29.8in /  1008.1hPa NNE 0.9mph /  1.4km/h 9mph /  14.5km/h 91% 0in /  0.0mm 0 W/m2
03:59 67.1 °F /  19.5 °C 64.4 °F /  18 °C 29.8in /  1008.5hPa NNW 2.9mph /  4.7km/h 5mph /  8km/h 91% 0in /  0.0mm 0 W/m2
04:04 67.1 °F /  19.5 °C 64.4 °F /  18 °C 29.8in /  1008.5hPa NW 2mph /  3.2km/h 9mph /  14.5km/h 91% 0in /  0.0mm 0 W/m2
04:09 67.1 °F /  19.5 °C 64.4 °F /  18 °C 29.8in /  1008.5hPa ENE 2mph /  3.2km/h 5mph /  8km/h 91% 0in /  0.0mm 0 W/m2
04:14 66.9 °F /  19.4 °C 64.2 °F /  17.9 °C 29.8in /  1008.5hPa WNW 2.9mph /  4.7km/h 6mph /  9.7km/h 91% 0in /  0.0mm 0 W/m2
04:19 66.9 °F /  19.4 °C 64.2 °F /  17.9 °C 29.8in /  1008.8hPa North 2mph /  3.2km/h 2mph /  3.2km/h 91% 0in /  0.0mm 0 W/m2
04:24 66.9 °F /  19.4 °C 64.2 °F /  17.9 °C 29.8in /  1008.5hPa NW 0.9mph /  1.4km/h 4mph /  6.4km/h 91% 0in /  0.0mm 0 W/m2
04:29 66.9 °F /  19.4 °C 64.2 °F /  17.9 °C 29.8in /  1008.8hPa NE 4mph /  6.4km/h 7mph /  11.3km/h 91% 0in /  0.0mm 0 W/m2
04:34 66.9 °F /  19.4 °C 64.2 °F /  17.9 °C 29.8in /  1008.8hPa WNW 8.9mph /  14.3km/h 10mph /  16.1km/h 91% 0in /  0.0mm 0 W/m2
04:40 67.1 °F /  19.5 °C 64.4 °F /  18 °C 29.8in /  1008.8hPa WNW 2.9mph /  4.7km/h 4mph /  6.4km/h 91% 0in /  0.0mm 0 W/m2
04:45 67.3 °F /  19.6 °C 64.2 °F /  17.9 °C 29.8in /  1008.8hPa West 2.9mph /  4.7km/h 6mph /  9.7km/h 90% 0in /  0.0mm 0 W/m2
04:50 67.3 °F /  19.6 °C 64.2 °F /  17.9 °C 29.8in /  1008.8hPa WNW 4mph /  6.4km/h 8mph /  12.9km/h 90% 0in /  0.0mm 0 W/m2
04:55 67.1 °F /  19.5 °C 64 °F /  17.8 °C 29.8in /  1009.1hPa West 2.9mph /  4.7km/h 3mph /  4.8km/h 90% 0in /  0.0mm 0 W/m2
05:00 67.1 °F /  19.5 °C 64 °F /  17.8 °C 29.8in /  1009.1hPa NW 4mph /  6.4km/h 6mph /  9.7km/h 90% 0in /  0.0mm 0 W/m2
05:05 67.1 °F /  19.5 °C 64 °F /  17.8 °C 29.8in /  1009.1hPa Calm   6mph /  9.7km/h 90% 0in /  0.0mm 0 W/m2
05:10 66.9 °F /  19.4 °C 63.9 °F /  17.7 °C 29.8in /  1009.1hPa West 0.9mph /  1.4km/h 7mph /  11.3km/h 90% 0in /  0.0mm 0 W/m2
05:15 66.9 °F /  19.4 °C 63.9 °F /  17.7 °C 29.8in /  1009.1hPa NW 2.9mph /  4.7km/h 7mph /  11.3km/h 90% 0in /  0.0mm 0 W/m2
05:20 66.9 °F /  19.4 °C 63.9 °F /  17.7 °C 29.8in /  1009.1hPa North 2.9mph /  4.7km/h 6mph /  9.7km/h 90% 0in /  0.0mm 0 W/m2
05:25 66.9 °F /  19.4 °C 63.9 °F /  17.7 °C 29.8in /  1009.5hPa West 0.9mph /  1.4km/h 4mph /  6.4km/h 90% 0in /  0.0mm 0 W/m2
05:30 66.9 °F /  19.4 °C 63.9 °F /  17.7 °C 29.8in /  1009.5hPa Calm   2mph /  3.2km/h 90% 0in /  0.0mm 0 W/m2
05:35 66.9 °F /  19.4 °C 63.9 °F /  17.7 °C 29.8in /  1009.1hPa WNW 4.9mph /  7.9km/h 6mph /  9.7km/h 90% 0in /  0.0mm 0 W/m2
05:40 66.9 °F /  19.4 °C 63.9 °F /  17.7 °C 29.8in /  1009.1hPa West 4mph /  6.4km/h 8mph /  12.9km/h 90% 0in /  0.0mm 0 W/m2
05:45 66.7 °F /  19.3 °C 63.7 °F /  17.6 °C 29.8in /  1009.1hPa NW 0.9mph /  1.4km/h 10mph /  16.1km/h 90% 0in /  0.0mm 7 W/m2
05:50 66.7 °F /  19.3 °C 63.7 °F /  17.6 °C 29.8in /  1009.1hPa WNW 2mph /  3.2km/h 3mph /  4.8km/h 90% 0in /  0.0mm 11 W/m2
05:55 66.6 °F /  19.2 °C 63.5 °F /  17.5 °C 29.8in /  1009.1hPa WNW 0.9mph /  1.4km/h 4mph /  6.4km/h 90% 0in /  0.0mm 11 W/m2
06:00 66.6 °F /  19.2 °C 63.9 °F /  17.7 °C 29.8in /  1009.1hPa Calm   4mph /  6.4km/h 91% 0in /  0.0mm 12 W/m2
06:05 66.4 °F /  19.1 °C 63.7 °F /  17.6 °C 29.8in /  1009.1hPa Calm   2mph /  3.2km/h 91% 0in /  0.0mm 14 W/m2
06:10 66.2 °F /  19 °C 63.5 °F /  17.5 °C 29.8in /  1009.5hPa Calm   4mph /  6.4km/h 91% 0in /  0.0mm 18 W/m2
06:15 66 °F /  18.9 °C 63.3 °F /  17.4 °C 29.8in /  1009.5hPa NNW 2mph /  3.2km/h 3mph /  4.8km/h 91% 0in /  0.0mm 44 W/m2
06:20 66 °F /  18.9 °C 63.3 °F /  17.4 °C 29.8in /  1009.1hPa Calm   1mph /  1.6km/h 91% 0in /  0.0mm 21 W/m2
06:25 66 °F /  18.9 °C 63.3 °F /  17.4 °C 29.8in /  1009.1hPa NNW 3mph /  4.8km/h 3mph /  4.8km/h 91% 0in /  0.0mm 21 W/m2
06:30 66 °F /  18.9 °C 63.7 °F /  17.6 °C 29.8in /  1009.5hPa Calm     92% 0in /  0.0mm 40 W/m2
06:35 65.8 °F /  18.8 °C 63.5 °F /  17.5 °C 29.8in /  1009.5hPa Calm     92% 0in /  0.0mm 35 W/m2
06:40 65.8 °F /  18.8 °C 63.5 °F /  17.5 °C 29.8in /  1009.5hPa Calm     92% 0in /  0.0mm 32 W/m2
06:45 65.7 °F /  18.7 °C 63.3 °F /  17.4 °C 29.8in /  1009.5hPa Calm     92% 0in /  0.0mm 39 W/m2
06:50 65.8 °F /  18.8 °C 63.5 °F /  17.5 °C 29.8in /  1009.5hPa Calm   2mph /  3.2km/h 92% 0in /  0.0mm 51 W/m2
06:55 66 °F /  18.9 °C 63.7 °F /  17.6 °C 29.8in /  1009.5hPa NW 0.9mph /  1.4km/h 1mph /  1.6km/h 92% 0in /  0.0mm 46 W/m2
07:00 66 °F /  18.9 °C 63.7 °F /  17.6 °C 29.8in /  1009.5hPa WNW 0.9mph /  1.4km/h 2mph /  3.2km/h 92% 0in /  0.0mm 46 W/m2
07:05 66.4 °F /  19.1 °C 64 °F /  17.8 °C 29.8in /  1009.5hPa Calm   2mph /  3.2km/h 92% 0in /  0.0mm 54 W/m2
07:10 66.6 °F /  19.2 °C 63.9 °F /  17.7 °C 29.8in /  1009.5hPa NNW 2mph /  3.2km/h 5mph /  8km/h 91% 0in /  0.0mm 77 W/m2
07:15 66.7 °F /  19.3 °C 64 °F /  17.8 °C 29.8in /  1009.5hPa NW 0.9mph /  1.4km/h 4mph /  6.4km/h 91% 0in /  0.0mm 74 W/m2
07:20 66.9 °F /  19.4 °C 63.9 °F /  17.7 °C 29.8in /  1009.5hPa NNW 2mph /  3.2km/h 2mph /  3.2km/h 90% 0in /  0.0mm 70 W/m2
07:25 66.9 °F /  19.4 °C 63.9 °F /  17.7 °C 29.8in /  1009.1hPa Calm   1mph /  1.6km/h 90% 0in /  0.0mm 81 W/m2
07:30 66.9 °F /  19.4 °C 63.9 °F /  17.7 °C 29.8in /  1009.5hPa Calm   1mph /  1.6km/h 90% 0in /  0.0mm 90 W/m2
07:35 67.3 °F /  19.6 °C 64.2 °F /  17.9 °C 29.8in /  1009.5hPa Calm   2mph /  3.2km/h 90% 0in /  0.0mm 105 W/m2
07:40 67.3 °F /  19.6 °C 63.9 °F /  17.7 °C 29.8in /  1009.5hPa Calm   2mph /  3.2km/h 89% 0in /  0.0mm 139 W/m2
07:45 67.5 °F /  19.7 °C 64 °F /  17.8 °C 29.8in /  1009.5hPa Calm   2mph /  3.2km/h 89% 0in /  0.0mm 207 W/m2
07:50 67.6 °F /  19.8 °C 64.2 °F /  17.9 °C 29.8in /  1009.8hPa NW 0.9mph /  1.4km/h 3mph /  4.8km/h 89% 0in /  0.0mm 243 W/m2
07:55 67.8 °F /  19.9 °C 64.2 °F /  17.9 °C 29.8in /  1009.8hPa Calm   3mph /  4.8km/h 88% 0in /  0.0mm 225 W/m2
08:00 68.2 °F /  20.1 °C 64.4 °F /  18 °C 29.8in /  1009.5hPa NNE 0.9mph /  1.4km/h 1mph /  1.6km/h 88% 0in /  0.0mm 278 W/m2
08:06 68.7 °F /  20.4 °C 64.8 °F /  18.2 °C 29.8in /  1009.5hPa WSW 5mph /  8km/h 5mph /  8km/h 87% 0in /  0.0mm 279 W/m2
08:11 68.7 °F /  20.4 °C 64.4 °F /  18 °C 29.8in /  1009.5hPa West 2mph /  3.2km/h 9mph /  14.5km/h 86% 0in /  0.0mm 211 W/m2
08:16 68.5 °F /  20.3 °C 64.2 °F /  17.9 °C 29.8in /  1009.5hPa WNW 6.9mph /  11.1km/h 8mph /  12.9km/h 86% 0in /  0.0mm 244 W/m2
08:21 68.4 °F /  20.2 °C 63.7 °F /  17.6 °C 29.8in /  1009.5hPa Calm   9mph /  14.5km/h 85% 0in /  0.0mm 186 W/m2
08:26 68.4 °F /  20.2 °C 63.7 °F /  17.6 °C 29.8in /  1009.5hPa Calm   3mph /  4.8km/h 85% 0in /  0.0mm 148 W/m2
08:31 68.5 °F /  20.3 °C 63.9 °F /  17.7 °C 29.8in /  1009.5hPa WNW 6.9mph /  11.1km/h 8mph /  12.9km/h 85% 0in /  0.0mm 128 W/m2
08:36 68.5 °F /  20.3 °C 63.5 °F /  17.5 °C 29.8in /  1009.5hPa Calm   3mph /  4.8km/h 84% 0in /  0.0mm 91 W/m2
08:41 68.7 °F /  20.4 °C 63.7 °F /  17.6 °C 29.8in /  1009.5hPa West 2mph /  3.2km/h 8mph /  12.9km/h 84% 0in /  0.0mm 100 W/m2
08:46 68.7 °F /  20.4 °C 63.7 °F /  17.6 °C 29.8in /  1009.8hPa WNW 2mph /  3.2km/h 4mph /  6.4km/h 84% 0in /  0.0mm 91 W/m2
08:51 68.7 °F /  20.4 °C 63.3 °F /  17.4 °C 29.8in /  1009.8hPa Calm   5mph /  8km/h 83% 0in /  0.0mm 93 W/m2
08:56 68.7 °F /  20.4 °C 63 °F /  17.2 °C 29.8in /  1009.8hPa NNE 0.9mph /  1.4km/h 2mph /  3.2km/h 82% 0in /  0.0mm 105 W/m2
09:01 68.9 °F /  20.5 °C 63.1 °F /  17.3 °C 29.8in /  1009.8hPa Calm   2mph /  3.2km/h 82% 0in /  0.0mm 105 W/m2
09:06 69.3 °F /  20.7 °C 63.5 °F /  17.5 °C 29.8in /  1009.8hPa South 0.9mph /  1.4km/h 3mph /  4.8km/h 82% 0in /  0.0mm 188 W/m2
09:11 69.6 °F /  20.9 °C 63.5 °F /  17.5 °C 29.8in /  1009.8hPa ESE 0.9mph /  1.4km/h 2mph /  3.2km/h 81% 0in /  0.0mm 151 W/m2
09:16 70.5 °F /  21.4 °C 64.4 °F /  18 °C 29.8in /  1009.8hPa WSW 2mph /  3.2km/h 3mph /  4.8km/h 81% 0in /  0.0mm 274 W/m2
09:21 71.1 °F /  21.7 °C 64.6 °F /  18.1 °C 29.8in /  1009.5hPa SW 0.9mph /  1.4km/h 4mph /  6.4km/h 80% 0in /  0.0mm 415 W/m2
09:26 70.9 °F /  21.6 °C 63.3 °F /  17.4 °C 29.8in /  1009.1hPa NW 2mph /  3.2km/h 3mph /  4.8km/h 77% 0in /  0.0mm 135 W/m2
09:31 70.3 °F /  21.3 °C 62.8 °F /  17.1 °C 29.8in /  1009.1hPa Calm   3mph /  4.8km/h 77% 0in /  0.0mm 105 W/m2
09:36 70.3 °F /  21.3 °C 63.9 °F /  17.7 °C 29.8in /  1009.1hPa NW 0.9mph /  1.4km/h 2mph /  3.2km/h 80% 0in /  0.0mm 557 W/m2
09:41 70.9 °F /  21.6 °C 63.7 °F /  17.6 °C 29.8in /  1009.1hPa East 2.9mph /  4.7km/h 4mph /  6.4km/h 78% 0in /  0.0mm 519 W/m2
09:46 71.4 °F /  21.9 °C 63.9 °F /  17.7 °C 29.8in /  1009.5hPa ENE 2mph /  3.2km/h 3mph /  4.8km/h 77% 0in /  0.0mm 615 W/m2
09:51 71.8 °F /  22.1 °C 64.2 °F /  17.9 °C 29.8in /  1009.5hPa NE 0.9mph /  1.4km/h 3mph /  4.8km/h 77% 0in /  0.0mm 192 W/m2
09:56 71.8 °F /  22.1 °C 63.5 °F /  17.5 °C 29.8in /  1009.1hPa ESE 2mph /  3.2km/h 2mph /  3.2km/h 75% 0in /  0.0mm 195 W/m2
10:01 72 °F /  22.2 °C 63.7 °F /  17.6 °C 29.8in /  1009.1hPa Calm     75% 0in /  0.0mm 494 W/m2
10:06 72 °F /  22.2 °C 63.1 °F /  17.3 °C 29.8in /  1009.1hPa WSW 0.9mph /  1.4km/h 4mph /  6.4km/h 74% 0in /  0.0mm 404 W/m2
10:11 72.1 °F /  22.3 °C 63.9 °F /  17.7 °C 29.8in /  1009.5hPa West 0.9mph /  1.4km/h 2mph /  3.2km/h 75% 0in /  0.0mm 290 W/m2
10:16 72.3 °F /  22.4 °C 63.5 °F /  17.5 °C 29.8in /  1009.5hPa East 2mph /  3.2km/h 3mph /  4.8km/h 74% 0in /  0.0mm 229 W/m2
10:21 72.7 °F /  22.6 °C 63.9 °F /  17.7 °C 29.8in /  1009.5hPa SE 0.9mph /  1.4km/h 6mph /  9.7km/h 74% 0in /  0.0mm 192 W/m2
10:26 72.1 °F /  22.3 °C 61.9 °F /  16.6 °C 29.8in /  1009.5hPa WNW 2.9mph /  4.7km/h 7mph /  11.3km/h 70% 0in /  0.0mm 714 W/m2
10:31 72.3 °F /  22.4 °C 62.1 °F /  16.7 °C 29.8in /  1009.1hPa NE 0.9mph /  1.4km/h 3mph /  4.8km/h 70% 0in /  0.0mm 754 W/m2
10:36 72.9 °F /  22.7 °C 62.4 °F /  16.9 °C 29.8in /  1009.5hPa NE 0.9mph /  1.4km/h 7mph /  11.3km/h 70% 0in /  0.0mm 617 W/m2
10:41 73.2 °F /  22.9 °C 62.4 °F /  16.9 °C 29.8in /  1009.1hPa WNW 4mph /  6.4km/h 7mph /  11.3km/h 69% 0in /  0.0mm 415 W/m2
10:46 72.9 °F /  22.7 °C 62.1 °F /  16.7 °C 29.8in /  1009.5hPa East 4mph /  6.4km/h 7mph /  11.3km/h 69% 0in /  0.0mm 327 W/m2
10:51 72.5 °F /  22.5 °C 61.7 °F /  16.5 °C 29.8in /  1009.5hPa WSW 0.9mph /  1.4km/h 7mph /  11.3km/h 69% 0in /  0.0mm 374 W/m2
10:56 72.5 °F /  22.5 °C 63 °F /  17.2 °C 29.8in /  1009.5hPa WSW 2.9mph /  4.7km/h 3mph /  4.8km/h 72% 0in /  0.0mm 345 W/m2
11:01 72.7 °F /  22.6 °C 62.2 °F /  16.8 °C 29.8in /  1009.5hPa NE 0.9mph /  1.4km/h 3mph /  4.8km/h 70% 0in /  0.0mm 255 W/m2
11:06 72.3 °F /  22.4 °C 62.1 °F /  16.7 °C 29.8in /  1009.5hPa Calm   3mph /  4.8km/h 70% 0in /  0.0mm 248 W/m2
11:11 72.1 °F /  22.3 °C 62.6 °F /  17 °C 29.8in /  1009.1hPa NNE 0.9mph /  1.4km/h 4mph /  6.4km/h 72% 0in /  0.0mm 200 W/m2
11:16 72.3 °F /  22.4 °C 63.5 °F /  17.5 °C 29.8in /  1009.1hPa ENE 2mph /  3.2km/h 2mph /  3.2km/h 74% 0in /  0.0mm 425 W/m2
11:21 72.7 °F /  22.6 °C 63.5 °F /  17.5 °C 29.8in /  1009.1hPa West 2mph /  3.2km/h 3mph /  4.8km/h 73% 0in /  0.0mm 352 W/m2
11:26 72.9 °F /  22.7 °C 62.4 °F /  16.9 °C 29.8in /  1009.1hPa Calm   5mph /  8km/h 70% 0in /  0.0mm 308 W/m2
11:31 72.9 °F /  22.7 °C 63 °F /  17.2 °C 29.8in /  1009.1hPa East 0.9mph /  1.4km/h 2mph /  3.2km/h 71% 0in /  0.0mm 364 W/m2
11:36 73 °F /  22.8 °C 63.1 °F /  17.3 °C 29.8in /  1009.1hPa Calm   5mph /  8km/h 71% 0in /  0.0mm 299 W/m2
11:41 73 °F /  22.8 °C 62.6 °F /  17 °C 29.8in /  1008.8hPa Calm   1mph /  1.6km/h 70% 0in /  0.0mm 311 W/m2
11:46 73.2 °F /  22.9 °C 63.3 °F /  17.4 °C 29.8in /  1008.8hPa WNW 0.9mph /  1.4km/h 3mph /  4.8km/h 71% 0in /  0.0mm 988 W/m2
11:51 73.4 °F /  23 °C 63.5 °F /  17.5 °C 29.8in /  1008.5hPa NNW 0.9mph /  1.4km/h 2mph /  3.2km/h 71% 0in /  0.0mm 956 W/m2
11:56 73.8 °F /  23.2 °C 63.7 °F /  17.6 °C 29.8in /  1008.5hPa West 0.9mph /  1.4km/h 4mph /  6.4km/h 71% 0in /  0.0mm 976 W/m2
12:01 73.8 °F /  23.2 °C 63.3 °F /  17.4 °C 29.8in /  1008.5hPa ENE 0.9mph /  1.4km/h 3mph /  4.8km/h 70% 0in /  0.0mm 267 W/m2
12:06 73.9 °F /  23.3 °C 63.1 °F /  17.3 °C 29.8in /  1008.5hPa Calm   2mph /  3.2km/h 69% 0in /  0.0mm 302 W/m2
12:11 74.3 °F /  23.5 °C 62.6 °F /  17 °C 29.8in /  1008.5hPa East 0.9mph /  1.4km/h 3mph /  4.8km/h 67% 0in /  0.0mm 905 W/m2
12:16 74.8 °F /  23.8 °C 62.2 °F /  16.8 °C 29.8in /  1008.5hPa ESE 0.9mph /  1.4km/h 4mph /  6.4km/h 65% 0in /  0.0mm 265 W/m2
12:21 74.8 °F /  23.8 °C 62.2 °F /  16.8 °C 29.8in /  1008.5hPa East 2mph /  3.2km/h 3mph /  4.8km/h 65% 0in /  0.0mm 352 W/m2
12:26 74.7 °F /  23.7 °C 62.1 °F /  16.7 °C 29.8in /  1008.1hPa NE 2mph /  3.2km/h 2mph /  3.2km/h 65% 0in /  0.0mm 322 W/m2
12:31 74.7 °F /  23.7 °C 62.6 °F /  17 °C 29.8in /  1008.1hPa ENE 2mph /  3.2km/h 3mph /  4.8km/h 66% 0in /  0.0mm 454 W/m2
12:36 74.7 °F /  23.7 °C 64.2 °F /  17.9 °C 29.8in /  1008.5hPa ESE 2.9mph /  4.7km/h 3mph /  4.8km/h 70% 0in /  0.0mm 381 W/m2
12:41 74.8 °F /  23.8 °C 63.1 °F /  17.3 °C 29.8in /  1008.1hPa NNW 2.9mph /  4.7km/h 3mph /  4.8km/h 67% 0in /  0.0mm 443 W/m2
12:46 75.2 °F /  24 °C 62.6 °F /  17 °C 29.8in /  1007.8hPa NE 2.9mph /  4.7km/h 3mph /  4.8km/h 65% 0in /  0.0mm 893 W/m2
12:51 75.4 °F /  24.1 °C 63.1 °F /  17.3 °C 29.8in /  1007.8hPa East 0.9mph /  1.4km/h 2mph /  3.2km/h 66% 0in /  0.0mm 893 W/m2
12:56 75.9 °F /  24.4 °C 62.8 °F /  17.1 °C 29.8in /  1007.5hPa West 4mph /  6.4km/h 4mph /  6.4km/h 64% 0in /  0.0mm 923 W/m2
13:01 76.1 °F /  24.5 °C 63.9 °F /  17.7 °C 29.8in /  1007.5hPa WNW 2.9mph /  4.7km/h 3mph /  4.8km/h 66% 0in /  0.0mm 940 W/m2
13:06 76.6 °F /  24.8 °C 64 °F /  17.8 °C 29.8in /  1007.5hPa ENE 2mph /  3.2km/h 5mph /  8km/h 65% 0in /  0.0mm 990 W/m2
13:11 77.2 °F /  25.1 °C 64.6 °F /  18.1 °C 29.8in /  1007.5hPa ENE 2mph /  3.2km/h 5mph /  8km/h 65% 0in /  0.0mm 921 W/m2
13:16 77.2 °F /  25.1 °C 63.7 °F /  17.6 °C 29.8in /  1007.5hPa SE 0.9mph /  1.4km/h 4mph /  6.4km/h 63% 0in /  0.0mm 886 W/m2
13:21 77.2 °F /  25.1 °C 64.6 °F /  18.1 °C 29.8in /  1007.5hPa NNW 0.9mph /  1.4km/h 2mph /  3.2km/h 65% 0in /  0.0mm 789 W/m2
13:26 77.5 °F /  25.3 °C 64.4 °F /  18 °C 29.7in /  1007.1hPa Calm   2mph /  3.2km/h 64% 0in /  0.0mm 972 W/m2
13:32 78.1 °F /  25.6 °C 63.5 °F /  17.5 °C 29.8in /  1007.5hPa East 0.9mph /  1.4km/h 3mph /  4.8km/h 61% 0in /  0.0mm 949 W/m2
13:37 78.4 °F /  25.8 °C 63.9 °F /  17.7 °C 29.8in /  1007.5hPa SSE 2mph /  3.2km/h 2mph /  3.2km/h 61% 0in /  0.0mm 972 W/m2
13:42 78.6 °F /  25.9 °C 64 °F /  17.8 °C 29.8in /  1007.5hPa SE 2.9mph /  4.7km/h 5mph /  8km/h 61% 0in /  0.0mm 904 W/m2
13:47 78.6 °F /  25.9 °C 61.5 °F /  16.4 °C 29.8in /  1007.5hPa ENE 2.9mph /  4.7km/h 7mph /  11.3km/h 56% 0in /  0.0mm 918 W/m2
13:52 78.3 °F /  25.7 °C 61.7 °F /  16.5 °C 29.7in /  1007.1hPa Calm   2mph /  3.2km/h 57% 0in /  0.0mm 891 W/m2
13:57 78.4 °F /  25.8 °C 62.4 °F /  16.9 °C 29.7in /  1007.1hPa East 2mph /  3.2km/h 7mph /  11.3km/h 58% 0in /  0.0mm 888 W/m2
14:02 78.8 °F /  26 °C 63.7 °F /  17.6 °C 29.7in /  1007.1hPa ENE 2mph /  3.2km/h 2mph /  3.2km/h 60% 0in /  0.0mm 896 W/m2
14:07 79.2 °F /  26.2 °C 63.7 °F /  17.6 °C 29.7in /  1006.8hPa NW 0.9mph /  1.4km/h 4mph /  6.4km/h 59% 0in /  0.0mm 958 W/m2
14:12 79.3 °F /  26.3 °C 62.2 °F /  16.8 °C 29.7in /  1006.8hPa South 0.9mph /  1.4km/h 6mph /  9.7km/h 56% 0in /  0.0mm 819 W/m2
14:17 79.7 °F /  26.5 °C 62.6 °F /  17 °C 29.7in /  1006.4hPa ENE 0.9mph /  1.4km/h 8mph /  12.9km/h 56% 0in /  0.0mm 766 W/m2
14:22 79.7 °F /  26.5 °C 62.6 °F /  17 °C 29.7in /  1006.4hPa NE 2mph /  3.2km/h 5mph /  8km/h 56% 0in /  0.0mm 538 W/m2
14:27 79.7 °F /  26.5 °C 64 °F /  17.8 °C 29.7in /  1006.8hPa ESE 2mph /  3.2km/h 8mph /  12.9km/h 59% 0in /  0.0mm 406 W/m2
14:32 79.3 °F /  26.3 °C 61.7 °F /  16.5 °C 29.7in /  1006.8hPa ESE 2mph /  3.2km/h 4mph /  6.4km/h 55% 0in /  0.0mm 610 W/m2
14:37 79.3 °F /  26.3 °C 61.2 °F /  16.2 °C 29.7in /  1006.4hPa ENE 0.9mph /  1.4km/h 1mph /  1.6km/h 54% 0in /  0.0mm 357 W/m2
14:42 79 °F /  26.1 °C 61 °F /  16.1 °C 29.7in /  1006.4hPa NNE 0.9mph /  1.4km/h 3mph /  4.8km/h 54% 0in /  0.0mm 483 W/m2
14:47 79 °F /  26.1 °C 61.5 °F /  16.4 °C 29.7in /  1006.4hPa Calm   3mph /  4.8km/h 55% 0in /  0.0mm 362 W/m2
14:52 79 °F /  26.1 °C 61.5 °F /  16.4 °C 29.7in /  1006.1hPa East 2.9mph /  4.7km/h 3mph /  4.8km/h 55% 0in /  0.0mm 306 W/m2
14:57 78.8 °F /  26 °C 60.3 °F /  15.7 °C 29.7in /  1006.4hPa NE 0.9mph /  1.4km/h 1mph /  1.6km/h 53% 0in /  0.0mm 468 W/m2
15:02 79 °F /  26.1 °C 60.4 °F /  15.8 °C 29.7in /  1006.4hPa ENE 0.9mph /  1.4km/h 1mph /  1.6km/h 53% 0in /  0.0mm 540 W/m2
15:07 79.5 °F /  26.4 °C 60.8 °F /  16 °C 29.7in /  1006.4hPa ENE 2mph /  3.2km/h 6mph /  9.7km/h 53% 0in /  0.0mm 907 W/m2
15:12 80.2 °F /  26.8 °C 59.4 °F /  15.2 °C 29.7in /  1006.4hPa NE 2mph /  3.2km/h 3mph /  4.8km/h 49% 0in /  0.0mm 833 W/m2
15:17 80.2 °F /  26.8 °C 60.4 °F /  15.8 °C 29.7in /  1006.1hPa WNW 0.9mph /  1.4km/h 6mph /  9.7km/h 51% 0in /  0.0mm 849 W/m2
15:22 80.1 °F /  26.7 °C 60.3 °F /  15.7 °C 29.7in /  1005.8hPa NNW 2mph /  3.2km/h 4mph /  6.4km/h 51% 0in /  0.0mm 786 W/m2
15:27 80.4 °F /  26.9 °C 62.8 °F /  17.1 °C 29.7in /  1006.1hPa Calm     55% 0in /  0.0mm 446 W/m2
15:32 80.6 °F /  27 °C 60.3 °F /  15.7 °C 29.7in /  1006.1hPa East 0.9mph /  1.4km/h 4mph /  6.4km/h 50% 0in /  0.0mm 431 W/m2
15:37 80.8 °F /  27.1 °C 61.5 °F /  16.4 °C 29.7in /  1005.8hPa South 0.9mph /  1.4km/h 2mph /  3.2km/h 52% 0in /  0.0mm 290 W/m2
15:42 80.8 °F /  27.1 °C 62.6 °F /  17 °C 29.7in /  1005.8hPa West 0.9mph /  1.4km/h 3mph /  4.8km/h 54% 0in /  0.0mm 153 W/m2
15:47 80.1 °F /  26.7 °C 63.5 °F /  17.5 °C 29.7in /  1005.8hPa WSW 2mph /  3.2km/h 2mph /  3.2km/h 57% 0in /  0.0mm 139 W/m2
15:52 79.3 °F /  26.3 °C 63.7 °F /  17.6 °C 29.7in /  1005.8hPa Calm     59% 0in /  0.0mm 104 W/m2
15:57 78.4 °F /  25.8 °C 63.3 °F /  17.4 °C 29.7in /  1006.4hPa SW 0.9mph /  1.4km/h 2mph /  3.2km/h 60% 0in /  0.0mm 74 W/m2
16:02 77.7 °F /  25.4 °C 64 °F /  17.8 °C 29.7in /  1006.4hPa SW 0.9mph /  1.4km/h 2mph /  3.2km/h 63% 0in /  0.0mm 153 W/m2
16:07 77.2 °F /  25.1 °C 63.1 °F /  17.3 °C 29.7in /  1006.4hPa WSW 0.9mph /  1.4km/h 2mph /  3.2km/h 62% 0.01in /  0.2mm 269 W/m2
16:12 76.6 °F /  24.8 °C 66.6 °F /  19.2 °C 29.7in /  1006.1hPa Calm   1mph /  1.6km/h 71% 0.02in /  0.5mm 373 W/m2
16:17 76.3 °F /  24.6 °C 66.2 °F /  19 °C 29.7in /  1006.1hPa Calm   4mph /  6.4km/h 71% 0.02in /  0.5mm 921 W/m2
16:22 76.5 °F /  24.7 °C 66 °F /  18.9 °C 29.7in /  1006.1hPa ENE 2mph /  3.2km/h 2mph /  3.2km/h 70% 0.02in /  0.5mm 758 W/m2
16:27 76.8 °F /  24.9 °C 67.5 °F /  19.7 °C 29.7in /  1006.1hPa ESE 2mph /  3.2km/h 4mph /  6.4km/h 73% 0.02in /  0.5mm 526 W/m2
16:32 77 °F /  25 °C 64.8 °F /  18.2 °C 29.7in /  1005.8hPa ESE 2mph /  3.2km/h 4mph /  6.4km/h 66% 0.02in /  0.5mm 397 W/m2
16:37 76.8 °F /  24.9 °C 64.6 °F /  18.1 °C 29.7in /  1005.8hPa SE 0.9mph /  1.4km/h 3mph /  4.8km/h 66% 0.02in /  0.5mm 353 W/m2
16:42 76.6 °F /  24.8 °C 64.4 °F /  18 °C 29.7in /  1005.8hPa SE 2mph /  3.2km/h 3mph /  4.8km/h 66% 0.02in /  0.5mm 338 W/m2
16:47 76.6 °F /  24.8 °C 65.7 °F /  18.7 °C 29.7in /  1005.8hPa SE 0.9mph /  1.4km/h 1mph /  1.6km/h 69% 0.02in /  0.5mm 352 W/m2
16:52 76.6 °F /  24.8 °C 64 °F /  17.8 °C 29.7in /  1005.8hPa Calm   2mph /  3.2km/h 65% 0.02in /  0.5mm 322 W/m2
16:57 76.6 °F /  24.8 °C 63.5 °F /  17.5 °C 29.7in /  1005.8hPa Calm   5mph /  8km/h 64% 0.02in /  0.5mm 260 W/m2
17:02 76.5 °F /  24.7 °C 64.2 °F /  17.9 °C 29.7in /  1005.8hPa Calm   2mph /  3.2km/h 66% 0.02in /  0.5mm 199 W/m2
17:07 75.9 °F /  24.4 °C 65.8 °F /  18.8 °C 29.7in /  1005.8hPa Calm   5mph /  8km/h 71% 0.01in /  0.2mm 141 W/m2
17:12 75.6 °F /  24.2 °C 66.7 °F /  19.3 °C 29.7in /  1005.8hPa South 0.9mph /  1.4km/h 2mph /  3.2km/h 74% 0in /  0.0mm 86 W/m2
17:17 74.8 °F /  23.8 °C 66 °F /  18.9 °C 29.7in /  1005.8hPa South 0.9mph /  1.4km/h 2mph /  3.2km/h 74% 0in /  0.0mm 51 W/m2
17:22 74.3 °F /  23.5 °C 65.5 °F /  18.6 °C 29.7in /  1006.1hPa Calm   1mph /  1.6km/h 74% 0in /  0.0mm 32 W/m2
17:27 73.8 °F /  23.2 °C 65.7 °F /  18.7 °C 29.7in /  1006.1hPa Calm   1mph /  1.6km/h 76% 0in /  0.0mm 23 W/m2
17:32 73 °F /  22.8 °C 65.5 °F /  18.6 °C 29.7in /  1006.1hPa South 0.9mph /  1.4km/h 2mph /  3.2km/h 77% 0in /  0.0mm 18 W/m2
17:37 72.5 °F /  22.5 °C 65.7 °F /  18.7 °C 29.7in /  1006.1hPa South 0.9mph /  1.4km/h 1mph /  1.6km/h 79% 0in /  0.0mm 18 W/m2
17:42 72 °F /  22.2 °C 66.2 °F /  19 °C 29.7in /  1005.8hPa South 0.9mph /  1.4km/h 2mph /  3.2km/h 82% 0.01in /  0.2mm 23 W/m2
17:47 71.2 °F /  21.8 °C 66.2 °F /  19 °C 29.7in /  1005.8hPa South 2mph /  3.2km/h 2mph /  3.2km/h 84% 0.02in /  0.5mm 26 W/m2
17:52 70.7 °F /  21.5 °C 66.4 °F /  19.1 °C 29.7in /  1005.8hPa Calm   1mph /  1.6km/h 86% 0.02in /  0.5mm 44 W/m2
17:57 70.3 °F /  21.3 °C 66.6 °F /  19.2 °C 29.7in /  1005.1hPa Calm   1mph /  1.6km/h 88% 0.04in /  1.0mm 72 W/m2
18:02 70.2 °F /  21.2 °C 66.7 °F /  19.3 °C 29.7in /  1005.1hPa Calm     89% 0.05in /  1.3mm 127 W/m2
18:07 70 °F /  21.1 °C 66.9 °F /  19.4 °C 29.7in /  1005.1hPa South 2mph /  3.2km/h 2mph /  3.2km/h 90% 0.06in /  1.5mm 148 W/m2
18:12 69.8 °F /  21 °C 67.1 °F /  19.5 °C 29.7in /  1005.4hPa South 0.9mph /  1.4km/h 2mph /  3.2km/h 91% 0.06in /  1.5mm 158 W/m2
18:17 69.6 °F /  20.9 °C 67.3 °F /  19.6 °C 29.7in /  1005.4hPa Calm     92% 0.06in /  1.5mm 107 W/m2
18:22 69.6 °F /  20.9 °C 67.3 °F /  19.6 °C 29.7in /  1005.8hPa Calm     92% 0.06in /  1.5mm 58 W/m2
18:27 69.4 °F /  20.8 °C 67.1 °F /  19.5 °C 29.7in /  1005.8hPa Calm     92% 0.06in /  1.5mm 65 W/m2
18:32 69.3 °F /  20.7 °C 66.9 °F /  19.4 °C 29.7in /  1005.4hPa Calm     92% 0.06in /  1.5mm 86 W/m2
18:37 69.1 °F /  20.6 °C 66.7 °F /  19.3 °C 29.7in /  1005.1hPa Calm     92% 0.06in /  1.5mm 90 W/m2
18:42 68.9 °F /  20.5 °C 66.6 °F /  19.2 °C 29.7in /  1004.7hPa Calm     92% 0.05in /  1.3mm 105 W/m2
18:47 68.9 °F /  20.5 °C 66.6 °F /  19.2 °C 29.7in /  1004.7hPa Calm     92% 0.05in /  1.3mm 160 W/m2
18:52 69.1 °F /  20.6 °C 66.9 °F /  19.4 °C 29.7in /  1004.7hPa Calm     93% 0.04in /  1.0mm 142 W/m2
18:57 69.3 °F /  20.7 °C 67.1 °F /  19.5 °C 29.7in /  1004.4hPa Calm     93% 0.02in /  0.5mm 90 W/m2
19:02 69.4 °F /  20.8 °C 67.3 °F /  19.6 °C 29.7in /  1004.4hPa Calm     93% 0.02in /  0.5mm 51 W/m2
19:07 69.4 °F /  20.8 °C 67.3 °F /  19.6 °C 29.7in /  1004.4hPa Calm     93% 0.01in /  0.2mm 47 W/m2
19:12 69.4 °F /  20.8 °C 67.3 °F /  19.6 °C 29.7in /  1004.1hPa ESE 0.9mph /  1.4km/h 3mph /  4.8km/h 93% 0.01in /  0.2mm 47 W/m2
19:17 69.1 °F /  20.6 °C 66.7 °F /  19.3 °C 29.7in /  1004.4hPa Calm   4mph /  6.4km/h 92% 0.01in /  0.2mm 63 W/m2
19:22 69.3 °F /  20.7 °C 66.9 °F /  19.4 °C 29.7in /  1004.4hPa Calm     92% 0.01in /  0.2mm 70 W/m2
19:27 69.4 °F /  20.8 °C 67.3 °F /  19.6 °C 29.7in /  1004.1hPa Calm   3mph /  4.8km/h 93% 0.01in /  0.2mm 69 W/m2
19:32 69.4 °F /  20.8 °C 67.3 °F /  19.6 °C 29.7in /  1004.1hPa Calm     93% 0.01in /  0.2mm 67 W/m2
19:37 69.4 °F /  20.8 °C 67.3 °F /  19.6 °C 29.7in /  1004.1hPa Calm     93% 0.01in /  0.2mm 121 W/m2
19:42 69.4 °F /  20.8 °C 67.3 °F /  19.6 °C 29.7in /  1004.1hPa Calm     93% 0.01in /  0.2mm 84 W/m2
19:47 69.4 °F /  20.8 °C 67.3 °F /  19.6 °C 29.7in /  1004.1hPa Calm     93% 0in /  0.0mm 46 W/m2
19:52 69.4 °F /  20.8 °C 67.3 °F /  19.6 °C 29.7in /  1004.1hPa Calm     93% 0in /  0.0mm 54 W/m2
19:57 69.4 °F /  20.8 °C 67.3 °F /  19.6 °C 29.7in /  1004.4hPa Calm     93% 0in /  0.0mm 49 W/m2
20:02 69.6 °F /  20.9 °C 67.5 °F /  19.7 °C 29.7in /  1004.4hPa Calm     93% 0in /  0.0mm 21 W/m2
20:07 69.4 °F /  20.8 °C 67.3 °F /  19.6 °C 29.7in /  1004.4hPa South 0.9mph /  1.4km/h 2mph /  3.2km/h 93% 0in /  0.0mm 16 W/m2
20:22 68.9 °F /  20.5 °C 66.7 °F /  19.3 °C 29.7in /  1004.7hPa Calm     93% 0in /  0.0mm 5 W/m2
20:27 68.7 °F /  20.4 °C 66.6 °F /  19.2 °C 29.7in /  1004.7hPa Calm     93% 0in /  0.0mm 5 W/m2
20:32 68.5 °F /  20.3 °C 66.4 °F /  19.1 °C 29.7in /  1004.7hPa Calm     93% 0in /  0.0mm 11 W/m2
20:37 68.5 °F /  20.3 °C 66.4 °F /  19.1 °C 29.7in /  1004.7hPa Calm     93% 0in /  0.0mm 14 W/m2
20:42 68.4 °F /  20.2 °C 66.6 °F /  19.2 °C 29.7in /  1004.7hPa Calm     94% 0in /  0.0mm 14 W/m2
20:47 68.4 °F /  20.2 °C 66.6 °F /  19.2 °C 29.7in /  1004.7hPa Calm     94% 0in /  0.0mm 18 W/m2
20:52 68.4 °F /  20.2 °C 66.6 °F /  19.2 °C 29.7in /  1004.7hPa Calm     94% 0in /  0.0mm 19 W/m2
20:57 68.5 °F /  20.3 °C 66.7 °F /  19.3 °C 29.7in /  1004.7hPa Calm     94% 0in /  0.0mm 14 W/m2
21:02 68.5 °F /  20.3 °C 66.7 °F /  19.3 °C 29.7in /  1004.4hPa Calm     94% 0in /  0.0mm 5 W/m2
21:07 68.5 °F /  20.3 °C 66.7 °F /  19.3 °C 29.7in /  1004.4hPa Calm     94% 0in /  0.0mm 0 W/m2
21:12 68.5 °F /  20.3 °C 66.7 °F /  19.3 °C 29.7in /  1004.4hPa Calm     94% 0in /  0.0mm 0 W/m2
21:17 68.5 °F /  20.3 °C 67.1 °F /  19.5 °C 29.7in /  1004.4hPa Calm     95% 0in /  0.0mm 0 W/m2
21:22 68.5 °F /  20.3 °C 66.7 °F /  19.3 °C 29.7in /  1004.1hPa Calm     94% 0in /  0.0mm 0 W/m2
21:27 68.4 °F /  20.2 °C 66.6 °F /  19.2 °C 29.6in /  1003.7hPa Calm     94% 0in /  0.0mm 0 W/m2
21:32 68.4 °F /  20.2 °C 66.9 °F /  19.4 °C 29.6in /  1003.7hPa Calm     95% 0in /  0.0mm 0 W/m2
21:37 68.2 °F /  20.1 °C 66.7 °F /  19.3 °C 29.7in /  1004.1hPa Calm     95% 0.01in /  0.2mm 0 W/m2
21:42 68.2 °F /  20.1 °C 66.7 °F /  19.3 °C 29.7in /  1004.1hPa Calm     95% 0.01in /  0.2mm 0 W/m2
21:47 68 °F /  20 °C 66.6 °F /  19.2 °C 29.7in /  1004.1hPa Calm     95% 0.01in /  0.2mm 0 W/m2
21:52 68 °F /  20 °C 66.6 °F /  19.2 °C 29.6in /  1003.7hPa Calm     95% 0.01in /  0.2mm 0 W/m2
21:57 67.8 °F /  19.9 °C 66.4 °F /  19.1 °C 29.7in /  1004.1hPa Calm     95% 0.01in /  0.2mm 0 W/m2
22:02 68 °F /  20 °C 66.6 °F /  19.2 °C 29.6in /  1003.7hPa ENE 0.9mph /  1.4km/h 2mph /  3.2km/h 95% 0.01in /  0.2mm 0 W/m2
22:07 68 °F /  20 °C 66.6 °F /  19.2 °C 29.6in /  1003.7hPa ENE 0.9mph /  1.4km/h 3mph /  4.8km/h 95% 0.01in /  0.2mm 0 W/m2
22:12 68 °F /  20 °C 66.2 °F /  19 °C 29.6in /  1003.7hPa Calm   3mph /  4.8km/h 94% 0.01in /  0.2mm 0 W/m2
22:17 68 °F /  20 °C 66.2 °F /  19 °C 29.6in /  1003.7hPa Calm   2mph /  3.2km/h 94% 0.01in /  0.2mm 0 W/m2
22:22 68 °F /  20 °C 66.2 °F /  19 °C 29.6in /  1003.4hPa Calm     94% 0.01in /  0.2mm 0 W/m2
22:27 67.8 °F /  19.9 °C 66 °F /  18.9 °C 29.6in /  1003.4hPa Calm   2mph /  3.2km/h 94% 0.01in /  0.2mm 0 W/m2
22:32 67.8 °F /  19.9 °C 66 °F /  18.9 °C 29.6in /  1003.0hPa Calm     94% 0.01in /  0.2mm 0 W/m2
22:37 67.6 °F /  19.8 °C 65.8 °F /  18.8 °C 29.6in /  1003.0hPa Calm     94% 0in /  0.0mm 0 W/m2
22:42 67.6 °F /  19.8 °C 65.8 °F /  18.8 °C 29.6in /  1003.0hPa Calm     94% 0in /  0.0mm 0 W/m2
22:47 67.5 °F /  19.7 °C 65.7 °F /  18.7 °C 29.6in /  1003.0hPa Calm     94% 0in /  0.0mm 0 W/m2
22:52 67.3 °F /  19.6 °C 65.5 °F /  18.6 °C 29.6in /  1003.4hPa ENE 0.9mph /  1.4km/h 1mph /  1.6km/h 94% 0in /  0.0mm 0 W/m2
22:57 66.9 °F /  19.4 °C 65.1 °F /  18.4 °C 29.6in /  1003.4hPa ENE 4mph /  6.4km/h 7mph /  11.3km/h 94% 0in /  0.0mm 0 W/m2
23:02 66.9 °F /  19.4 °C 65.1 °F /  18.4 °C 29.6in /  1003.7hPa NE 2mph /  3.2km/h 4mph /  6.4km/h 94% 0in /  0.0mm 0 W/m2
23:07 66.9 °F /  19.4 °C 65.1 °F /  18.4 °C 29.6in /  1003.7hPa NNW 0.9mph /  1.4km/h 7mph /  11.3km/h 94% 0in /  0.0mm 0 W/m2
23:13 67.3 °F /  19.6 °C 65.1 °F /  18.4 °C 29.6in /  1003.7hPa Calm   1mph /  1.6km/h 93% 0in /  0.0mm 0 W/m2
23:18 67.3 °F /  19.6 °C 65.1 °F /  18.4 °C 29.6in /  1003.7hPa NE 0.9mph /  1.4km/h 2mph /  3.2km/h 93% 0in /  0.0mm 0 W/m2
23:23 67.3 °F /  19.6 °C 64.9 °F /  18.3 °C 29.6in /  1003.7hPa ESE 0.9mph /  1.4km/h 3mph /  4.8km/h 92% 0in /  0.0mm 0 W/m2
23:28 66.9 °F /  19.4 °C 64.6 °F /  18.1 °C 29.6in /  1003.7hPa ENE 2mph /  3.2km/h 4mph /  6.4km/h 92% 0in /  0.0mm 0 W/m2
23:33 66.7 °F /  19.3 °C 64 °F /  17.8 °C 29.6in /  1003.7hPa NE 0.9mph /  1.4km/h 3mph /  4.8km/h 91% 0in /  0.0mm 0 W/m2
23:38 66.7 °F /  19.3 °C 64 °F /  17.8 °C 29.6in /  1003.7hPa Calm   2mph /  3.2km/h 91% 0in /  0.0mm 0 W/m2
23:43 66.7 °F /  19.3 °C 64 °F /  17.8 °C 29.6in /  1003.7hPa NNW 2mph /  3.2km/h 2mph /  3.2km/h 91% 0in /  0.0mm 0 W/m2
23:48 66.6 °F /  19.2 °C 64.2 °F /  17.9 °C 29.6in /  1003.7hPa NE 0.9mph /  1.4km/h 3mph /  4.8km/h 92% 0in /  0.0mm 0 W/m2
23:53 66.6 °F /  19.2 °C 64.2 °F /  17.9 °C 29.6in /  1003.7hPa NW 2mph /  3.2km/h 3mph /  4.8km/h 92% 0in /  0.0mm 0 W/m2
23:58 66.6 °F /  19.2 °C 64.2 °F /  17.9 °C 29.6in /  1003.7hPa NNW 2mph /  3.2km/h 3mph /  4.8km/h 92% 0in /  0.0mm 0 W/m2
Juneau County Weather
Compliments of Weather Underground - 4 mb